createdAt,value
2023-03-26T00:01:59.912Z,83.45
2023-03-26T00:04:26.532Z,82.86
2023-03-26T00:06:53.481Z,82.98
2023-03-26T00:09:20.087Z,83.49
2023-03-26T00:11:46.852Z,83.48
2023-03-26T00:14:17.564Z,83.43
2023-03-26T00:16:44.942Z,83.07
2023-03-26T00:19:11.830Z,82.96
2023-03-26T00:21:38.425Z,82.96
2023-03-26T00:24:09.502Z,83.60
2023-03-26T00:26:38.708Z,84.18
2023-03-26T00:29:06.765Z,83.26
2023-03-26T00:31:33.915Z,83.69
2023-03-26T00:34:03.509Z,83.45
2023-03-26T00:36:30.513Z,83.57
2023-03-26T00:38:57.156Z,84.65
2023-03-26T00:41:26.370Z,84.00
2023-03-26T00:43:58.907Z,84.76
2023-03-26T00:46:29.705Z,84.79
2023-03-26T00:48:58.870Z,85.18
2023-03-26T00:51:26.465Z,85.21
2023-03-26T00:53:53.094Z,85.38
2023-03-26T00:56:19.970Z,84.28
2023-03-26T00:58:47.647Z,84.32
2023-03-26T01:01:17.384Z,85.11
2023-03-26T01:03:57.146Z,85.05
2023-03-26T01:06:36.233Z,84.83
2023-03-26T01:09:24.239Z,86.02
2023-03-26T01:11:51.026Z,85.54
2023-03-26T01:14:26.965Z,85.87
2023-03-26T01:16:55.820Z,85.82
2023-03-26T01:19:40.798Z,87.50
2023-03-26T01:22:11.244Z,86.49
2023-03-26T01:24:39.503Z,85.93
2023-03-26T01:27:12.189Z,86.43
2023-03-26T01:29:55.718Z,86.40
2023-03-26T01:32:31.686Z,85.97
2023-03-26T01:35:25.015Z,86.58
2023-03-26T01:38:17.187Z,87.07
2023-03-26T01:41:04.688Z,87.15
2023-03-26T01:43:39.579Z,87.22
2023-03-26T01:46:10.212Z,86.93
2023-03-26T01:48:42.934Z,87.07
2023-03-26T01:51:12.514Z,86.67
2023-03-26T01:53:44.908Z,86.67
2023-03-26T01:56:31.409Z,86.96
2023-03-26T01:59:23.157Z,87.57
2023-03-26T02:02:14.185Z,87.58
2023-03-26T02:05:04.976Z,87.73
2023-03-26T02:07:41.089Z,87.59
2023-03-26T02:10:14.844Z,87.17
2023-03-26T02:12:43.779Z,87.00
2023-03-26T02:15:12.059Z,87.48
2023-03-26T02:17:40.436Z,87.52
2023-03-26T02:20:11.039Z,87.22
2023-03-26T02:22:41.040Z,87.12
2023-03-26T02:25:10.601Z,87.59
2023-03-26T02:27:38.067Z,87.68
2023-03-26T02:30:09.487Z,87.35
2023-03-26T02:32:36.661Z,87.57
2023-03-26T02:35:06.021Z,87.42
2023-03-26T02:37:35.877Z,87.88
2023-03-26T02:40:04.736Z,87.34
2023-03-26T02:42:31.301Z,87.71
2023-03-26T02:44:57.803Z,87.77
2023-03-26T02:47:24.683Z,88.02
2023-03-26T02:49:51.361Z,87.65
2023-03-26T02:52:19.049Z,87.93
2023-03-26T02:54:45.771Z,88.29
2023-03-26T02:57:12.457Z,87.61
2023-03-26T02:59:39.060Z,88.29
2023-03-26T03:02:05.658Z,87.56
2023-03-26T03:04:32.293Z,87.54
2023-03-26T03:07:00.003Z,88.16
2023-03-26T03:09:26.676Z,88.16
2023-03-26T03:11:53.305Z,87.81
2023-03-26T03:14:20.358Z,88.69
2023-03-26T03:16:47.007Z,88.25
2023-03-26T03:19:13.743Z,88.42
2023-03-26T03:21:42.191Z,88.58
2023-03-26T03:24:10.108Z,88.03
2023-03-26T03:26:37.708Z,87.94
2023-03-26T03:29:04.387Z,87.81
2023-03-26T03:31:31.041Z,87.32
2023-03-26T03:33:57.919Z,88.04
2023-03-26T03:36:28.108Z,87.83
2023-03-26T03:38:55.165Z,87.44
2023-03-26T03:41:21.841Z,87.85
2023-03-26T03:43:48.893Z,88.03
2023-03-26T03:46:15.447Z,88.40
2023-03-26T03:48:48.205Z,88.50
2023-03-26T03:51:15.187Z,88.28
2023-03-26T03:53:41.769Z,88.31
2023-03-26T03:56:10.542Z,88.75
2023-03-26T03:58:37.667Z,88.80
2023-03-26T04:01:04.737Z,88.73
2023-03-26T04:03:34.049Z,88.85
2023-03-26T04:06:01.660Z,89.14
2023-03-26T04:08:28.276Z,89.07
2023-03-26T04:10:54.928Z,89.06
2023-03-26T04:13:22.350Z,89.33
2023-03-26T04:15:48.909Z,89.50
2023-03-26T04:18:15.556Z,89.94
2023-03-26T04:20:47.130Z,89.19
2023-03-26T04:23:14.931Z,89.88
2023-03-26T04:25:46.673Z,89.32
2023-03-26T04:28:26.512Z,89.36
2023-03-26T04:30:55.285Z,89.54
2023-03-26T04:33:21.949Z,89.20
2023-03-26T04:35:48.722Z,89.07
2023-03-26T04:38:16.807Z,89.52
2023-03-26T04:40:47.374Z,89.60
2023-03-26T04:43:16.556Z,89.84
2023-03-26T04:45:43.780Z,89.80
2023-03-26T04:48:14.798Z,89.70
2023-03-26T04:50:45.673Z,89.38
2023-03-26T04:53:15.621Z,89.92
2023-03-26T04:55:49.214Z,89.45
2023-03-26T04:58:16.433Z,89.64
2023-03-26T05:00:43.466Z,89.89
2023-03-26T05:03:11.840Z,89.93
2023-03-26T05:05:39.924Z,89.29
2023-03-26T05:08:06.684Z,89.41
2023-03-26T05:10:33.420Z,89.72
2023-03-26T05:13:00.126Z,89.89
2023-03-26T05:15:26.931Z,90.30
2023-03-26T05:17:55.760Z,89.93
2023-03-26T05:20:26.441Z,89.84
2023-03-26T05:22:53.084Z,90.24
2023-03-26T05:25:20.203Z,89.74
2023-03-26T05:27:47.410Z,90.18
2023-03-26T05:30:17.883Z,89.98
2023-03-26T05:32:44.679Z,89.87
2023-03-26T05:35:12.595Z,89.61
2023-03-26T05:37:39.246Z,89.93
2023-03-26T05:40:11.800Z,90.30
2023-03-26T05:42:39.347Z,90.21
2023-03-26T05:45:08.370Z,90.08
2023-03-26T05:47:35.061Z,90.42
2023-03-26T05:50:01.903Z,90.48
2023-03-26T05:52:29.194Z,90.35
2023-03-26T05:54:56.154Z,90.15
2023-03-26T05:57:24.213Z,90.20
2023-03-26T05:59:50.958Z,89.91
2023-03-26T06:02:17.545Z,90.58
2023-03-26T06:04:45.816Z,90.01
2023-03-26T06:07:12.826Z,90.57
2023-03-26T06:09:40.908Z,90.11
2023-03-26T06:12:09.490Z,89.74
2023-03-26T06:14:36.561Z,90.19
2023-03-26T06:17:03.734Z,89.86
2023-03-26T06:19:30.324Z,90.05
2023-03-26T06:21:57.040Z,89.95
2023-03-26T06:24:23.621Z,90.36
2023-03-26T06:26:50.507Z,89.89
2023-03-26T06:29:17.128Z,90.25
2023-03-26T06:31:43.933Z,90.24
2023-03-26T06:34:10.851Z,90.10
2023-03-26T06:36:37.482Z,90.18
2023-03-26T06:39:07.583Z,90.66
2023-03-26T06:41:35.697Z,91.14
2023-03-26T06:44:02.388Z,91.58
2023-03-26T06:46:29.305Z,91.32
2023-03-26T06:48:56.127Z,91.31
2023-03-26T06:51:22.709Z,91.67
2023-03-26T06:53:49.275Z,91.54
2023-03-26T06:56:16.053Z,91.46
2023-03-26T06:58:42.567Z,90.93
2023-03-26T07:01:09.251Z,90.98
2023-03-26T07:03:36.023Z,90.24
2023-03-26T07:06:02.604Z,91.01
2023-03-26T07:08:31.096Z,90.36
2023-03-26T07:10:57.897Z,90.79
2023-03-26T07:13:24.795Z,90.24
2023-03-26T07:15:51.478Z,90.38
2023-03-26T07:18:18.476Z,89.89
2023-03-26T07:20:46.284Z,90.35
2023-03-26T07:23:15.639Z,90.54
2023-03-26T07:25:47.886Z,89.83
2023-03-26T07:28:34.143Z,89.77
2023-03-26T07:31:42.522Z,89.11
2023-03-26T07:34:40.818Z,88.10
2023-03-26T07:37:36.981Z,89.71
2023-03-26T07:40:28.181Z,89.90
2023-03-26T07:43:07.501Z,88.96
2023-03-26T07:45:40.872Z,90.47
2023-03-26T07:48:25.544Z,89.61
2023-03-26T07:53:46.970Z,89.21
2023-03-26T07:56:21.508Z,88.86
2023-03-26T07:59:06.635Z,88.14
2023-03-26T08:02:14.209Z,88.29
2023-03-26T08:05:03.785Z,89.28
2023-03-26T08:07:55.421Z,90.03
2023-03-26T08:10:51.004Z,90.30
2023-03-26T08:13:35.697Z,88.56
2023-03-26T08:16:08.994Z,88.53
2023-03-26T08:18:54.617Z,87.50
2023-03-26T08:21:28.977Z,87.98
2023-03-26T08:24:18.181Z,87.72
2023-03-26T08:27:03.836Z,87.85
2023-03-26T08:29:58.211Z,87.04
2023-03-26T08:32:25.892Z,88.07
2023-03-26T08:34:52.802Z,87.31
2023-03-26T08:37:19.408Z,87.27
2023-03-26T08:39:46.107Z,86.84
2023-03-26T08:42:44.597Z,85.59
2023-03-26T08:49:03.710Z,85.44
2023-03-26T08:52:14.047Z,85.47
2023-03-26T08:55:06.372Z,88.51
2023-03-26T08:57:57.013Z,86.19
2023-03-26T09:00:38.550Z,87.32
2023-03-26T09:03:42.021Z,86.44
2023-03-26T09:06:36.361Z,84.37
2023-03-26T09:09:07.905Z,87.93
2023-03-26T09:12:26.691Z,88.29
2023-03-26T09:15:14.522Z,87.80
2023-03-26T09:18:05.840Z,85.90
2023-03-26T09:20:48.491Z,87.86
2023-03-26T09:23:32.886Z,87.17
2023-03-26T09:26:33.914Z,86.96
2023-03-26T09:29:12.393Z,87.95
2023-03-26T09:32:03.247Z,87.32
2023-03-26T09:35:08.373Z,87.13
2023-03-26T09:37:58.849Z,86.09
2023-03-26T09:40:38.131Z,87.37
2023-03-26T09:43:49.028Z,87.38
2023-03-26T09:46:52.390Z,86.93
2023-03-26T09:49:47.699Z,86.96
2023-03-26T09:52:47.633Z,85.85
2023-03-26T09:56:02.660Z,87.01
2023-03-26T09:59:17.762Z,88.35
2023-03-26T10:05:13.749Z,86.09
2023-03-26T10:08:12.656Z,87.27
2023-03-26T10:10:53.607Z,85.45
2023-03-26T10:13:33.904Z,87.23
2023-03-26T10:16:27.356Z,85.46
2023-03-26T10:19:11.092Z,84.16
2023-03-26T10:22:09.932Z,85.26
2023-03-26T10:25:16.045Z,86.71
2023-03-26T10:28:00.692Z,87.01
2023-03-26T10:31:25.463Z,86.67
2023-03-26T10:34:28.618Z,87.10
2023-03-26T10:37:08.643Z,87.56
2023-03-26T10:40:06.160Z,85.90
2023-03-26T10:42:54.448Z,87.69
2023-03-26T10:45:51.377Z,83.82
2023-03-26T10:48:35.960Z,86.72
2023-03-26T10:51:08.544Z,88.03
2023-03-26T10:53:47.262Z,87.36
2023-03-26T10:56:38.382Z,86.65
2023-03-26T10:59:12.579Z,86.03
2023-03-26T11:02:09.522Z,86.75
2023-03-26T11:05:24.374Z,86.33
2023-03-26T11:08:00.375Z,87.44
2023-03-26T11:10:56.618Z,86.05
2023-03-26T11:13:46.259Z,86.91
2023-03-26T11:16:32.397Z,87.81
2023-03-26T11:19:12.067Z,88.32
2023-03-26T11:21:45.362Z,87.69
2023-03-26T11:24:49.323Z,87.77
2023-03-26T11:27:39.996Z,86.33
2023-03-26T11:30:31.481Z,86.58
2023-03-26T11:33:03.502Z,85.18
2023-03-26T11:35:40.420Z,87.69
2023-03-26T11:38:22.257Z,86.27
2023-03-26T11:40:53.333Z,85.91
2023-03-26T11:43:26.286Z,84.94
2023-03-26T11:45:53.870Z,84.09
2023-03-26T11:48:32.385Z,86.14
2023-03-26T11:51:04.546Z,84.32
2023-03-26T11:53:35.073Z,84.97
2023-03-26T11:56:14.970Z,85.44
2023-03-26T11:58:54.662Z,84.89
2023-03-26T12:04:40.463Z,85.21
2023-03-26T12:07:23.918Z,85.45
2023-03-26T12:09:57.105Z,86.04
2023-03-26T12:15:50.555Z,85.99
2023-03-26T12:18:25.334Z,85.54
2023-03-26T12:24:08.556Z,85.50
2023-03-26T12:26:39.611Z,85.23
2023-03-26T12:29:13.374Z,85.48
2023-03-26T12:32:07.323Z,83.72
2023-03-26T12:34:39.642Z,84.49
2023-03-26T12:37:08.013Z,83.32
2023-03-26T12:40:08.111Z,80.16
2023-03-26T12:44:47.301Z,81.04
2023-03-26T12:45:29.167Z,80.71
2023-03-26T12:48:03.796Z,77.56
2023-03-26T12:50:43.206Z,78.55
2023-03-26T12:53:47.861Z,75.69
2023-03-26T12:56:36.446Z,79.35
2023-03-26T12:59:16.077Z,75.42
2023-03-26T13:01:58.116Z,76.34
2023-03-26T13:05:05.118Z,76.18
2023-03-26T13:08:15.390Z,74.44
2023-03-26T13:11:05.259Z,71.96
2023-03-26T13:14:07.414Z,73.13
2023-03-26T13:17:04.073Z,72.87
2023-03-26T13:19:42.915Z,70.58
2023-03-26T13:22:27.685Z,71.22
2023-03-26T13:25:22.312Z,69.72
2023-03-26T13:28:19.758Z,70.52
2023-03-26T13:31:06.205Z,71.02
2023-03-26T13:33:45.914Z,69.47
2023-03-26T13:36:41.881Z,69.32
2023-03-26T13:39:36.281Z,70.34
2023-03-26T13:42:15.182Z,71.06
2023-03-26T13:45:14.597Z,68.92
2023-03-26T13:47:50.522Z,68.18
2023-03-26T13:50:39.370Z,69.11
2023-03-26T13:53:14.289Z,65.85
2023-03-26T13:55:45.873Z,68.79
2023-03-26T13:58:42.107Z,67.77
2023-03-26T14:04:33.420Z,66.57
2023-03-26T14:07:15.917Z,66.93
2023-03-26T14:09:56.972Z,67.68
2023-03-26T14:12:38.944Z,67.01
2023-03-26T14:15:16.585Z,66.45
2023-03-26T14:17:56.853Z,65.36
2023-03-26T14:20:57.034Z,64.56
2023-03-26T14:24:02.021Z,65.17
2023-03-26T14:26:58.530Z,64.62
2023-03-26T14:29:56.856Z,64.35
2023-03-26T14:32:44.037Z,64.49
2023-03-26T14:35:58.517Z,64.15
2023-03-26T14:38:54.435Z,64.21
2023-03-26T14:41:27.863Z,63.96
2023-03-26T14:44:47.576Z,62.78
2023-03-26T14:47:21.546Z,61.99
2023-03-26T14:50:06.813Z,63.70
2023-03-26T14:53:00.871Z,62.97
2023-03-26T14:55:30.532Z,61.99
2023-03-26T14:58:13.930Z,61.58
2023-03-26T15:01:04.360Z,61.68
2023-03-26T15:04:22.147Z,61.88
2023-03-26T15:07:15.570Z,62.71
2023-03-26T15:10:18.616Z,63.06
2023-03-26T15:13:23.202Z,61.70
2023-03-26T15:16:08.496Z,62.84
2023-03-26T15:18:53.579Z,62.49
2023-03-26T15:22:00.185Z,61.42
2023-03-26T15:24:27.079Z,60.92
2023-03-26T15:27:18.883Z,60.12
2023-03-26T15:30:13.942Z,60.06
2023-03-26T15:33:00.506Z,60.54
2023-03-26T15:35:47.106Z,59.94
2023-03-26T15:39:04.370Z,58.36
2023-03-26T15:42:02.317Z,58.85
2023-03-26T15:44:54.162Z,58.96
2023-03-26T15:47:48.748Z,58.16
2023-03-26T15:50:36.465Z,58.46
2023-03-26T15:53:42.146Z,58.60
2023-03-26T15:56:20.389Z,58.56
2023-03-26T15:58:54.057Z,59.48
2023-03-26T16:01:46.546Z,58.01
2023-03-26T16:04:26.636Z,58.52
2023-03-26T16:07:03.642Z,58.72
2023-03-26T16:09:33.170Z,58.76
2023-03-26T16:12:17.651Z,58.23
2023-03-26T16:15:03.776Z,57.82
2023-03-26T16:18:10.328Z,58.42
2023-03-26T16:20:50.683Z,57.77
2023-03-26T16:24:12.111Z,58.28
2023-03-26T16:26:53.056Z,58.27
2023-03-26T16:29:22.545Z,58.98
2023-03-26T16:32:14.952Z,56.93
2023-03-26T16:34:50.946Z,57.67
2023-03-26T16:37:52.676Z,56.74
2023-03-26T16:40:39.151Z,57.19
2023-03-26T16:43:32.322Z,57.63
2023-03-26T16:46:45.256Z,56.97
2023-03-26T16:49:45.688Z,56.18
2023-03-26T16:52:50.670Z,54.32
2023-03-26T16:55:28.611Z,54.80
2023-03-26T16:58:03.742Z,54.64
2023-03-26T17:00:48.214Z,55.40
2023-03-26T17:03:31.873Z,54.58
2023-03-26T17:06:06.097Z,54.34
2023-03-26T17:08:42.226Z,55.24
2023-03-26T17:11:36.215Z,53.88
2023-03-26T17:14:27.374Z,54.80
2023-03-26T17:17:03.008Z,55.04
2023-03-26T17:20:11.771Z,54.00
2023-03-26T17:22:46.196Z,54.26
2023-03-26T17:25:42.455Z,53.68
2023-03-26T17:28:37.135Z,53.12
2023-03-26T17:31:34.281Z,53.41
2023-03-26T17:34:38.033Z,53.70
2023-03-26T17:37:31.030Z,54.16
2023-03-26T17:40:01.421Z,55.01
2023-03-26T17:42:33.483Z,54.74
2023-03-26T17:45:02.710Z,55.42
2023-03-26T17:47:38.605Z,55.25
2023-03-26T17:50:08.282Z,55.32
2023-03-26T17:52:48.208Z,54.87
2023-03-26T17:55:20.020Z,54.50
2023-03-26T17:57:53.316Z,54.65
2023-03-26T18:00:23.899Z,54.13
2023-03-26T18:02:56.326Z,53.23
2023-03-26T18:05:27.084Z,54.30
2023-03-26T18:08:12.286Z,53.86
2023-03-26T18:11:05.290Z,54.06
2023-03-26T18:13:45.755Z,54.72
2023-03-26T18:16:17.430Z,53.71
2023-03-26T18:18:54.000Z,53.88
2023-03-26T18:21:28.370Z,54.23
2023-03-26T18:23:59.857Z,54.11
2023-03-26T18:26:36.959Z,53.72
2023-03-26T18:29:27.246Z,53.84
2023-03-26T18:31:55.547Z,53.82
2023-03-26T18:34:22.584Z,54.06
2023-03-26T18:37:01.206Z,54.02
2023-03-26T18:39:28.121Z,54.29
2023-03-26T18:41:54.981Z,55.08
2023-03-26T18:44:22.000Z,55.17
2023-03-26T18:46:49.002Z,55.34
2023-03-26T18:49:16.854Z,54.99
2023-03-26T18:51:56.042Z,55.55
2023-03-26T18:54:25.172Z,55.61
2023-03-26T18:56:52.802Z,55.90
2023-03-26T18:59:35.169Z,55.72
2023-03-26T19:02:11.538Z,55.88
2023-03-26T19:04:38.902Z,56.47
2023-03-26T19:07:10.829Z,56.59
2023-03-26T19:09:38.990Z,57.14
2023-03-26T19:12:08.916Z,57.38
2023-03-26T19:14:53.519Z,57.46
2023-03-26T19:17:21.281Z,58.12
2023-03-26T19:19:50.204Z,58.28
2023-03-26T19:22:17.923Z,58.86
2023-03-26T19:24:44.580Z,58.60
2023-03-26T19:27:12.453Z,59.17
2023-03-26T19:29:40.433Z,58.95
2023-03-26T19:32:27.738Z,59.03
2023-03-26T19:34:54.366Z,59.27
2023-03-26T19:37:25.031Z,59.75
2023-03-26T19:39:54.187Z,59.40
2023-03-26T19:42:27.196Z,59.70
2023-03-26T19:45:17.906Z,59.68
2023-03-26T19:47:48.418Z,59.34
2023-03-26T19:50:23.503Z,59.37
2023-03-26T19:53:16.823Z,59.50
2023-03-26T19:55:54.238Z,58.44
2023-03-26T19:58:21.423Z,58.53
2023-03-26T20:00:48.041Z,58.36
2023-03-26T20:03:16.812Z,57.87
2023-03-26T20:05:43.832Z,57.56
2023-03-26T20:08:14.961Z,57.46
2023-03-26T20:10:43.159Z,57.20
2023-03-26T20:13:16.814Z,57.46
2023-03-26T20:18:43.624Z,57.34
2023-03-26T20:21:12.456Z,57.08
2023-03-26T20:23:43.191Z,58.02
2023-03-26T20:26:15.249Z,57.59
2023-03-26T20:28:48.213Z,57.35
2023-03-26T20:31:22.025Z,58.17
2023-03-26T20:33:53.415Z,58.54
2023-03-26T20:36:34.342Z,57.93
2023-03-26T20:39:05.618Z,58.46
2023-03-26T20:41:32.775Z,58.76
2023-03-26T20:43:59.348Z,60.23
2023-03-26T20:46:30.791Z,58.82
2023-03-26T20:48:58.969Z,59.73
2023-03-26T20:51:28.191Z,58.99
2023-03-26T20:53:56.305Z,59.46
2023-03-26T20:56:23.531Z,59.58
2023-03-26T20:59:03.535Z,59.83
2023-03-26T21:01:37.785Z,59.09
2023-03-26T21:04:04.524Z,59.71
2023-03-26T21:06:31.140Z,60.90
2023-03-26T21:08:58.063Z,59.00
2023-03-26T21:11:46.636Z,60.62
2023-03-26T21:14:21.160Z,59.41
2023-03-26T21:16:48.403Z,59.42
2023-03-26T21:19:15.880Z,59.26
2023-03-26T21:21:59.202Z,59.53
2023-03-26T21:24:37.987Z,60.23
2023-03-26T21:27:26.450Z,59.97
2023-03-26T21:29:54.550Z,60.97
2023-03-26T21:32:22.772Z,60.83
2023-03-26T21:34:58.598Z,60.91
2023-03-26T21:37:26.622Z,63.12
2023-03-26T21:39:53.467Z,63.26
2023-03-26T21:42:20.534Z,61.13
2023-03-26T21:44:47.694Z,63.18
2023-03-26T21:47:14.902Z,64.43
2023-03-26T21:49:41.895Z,63.37
2023-03-26T21:52:14.624Z,63.06
2023-03-26T21:54:43.218Z,60.83
2023-03-26T21:57:30.221Z,63.96
2023-03-26T22:00:14.323Z,64.84
2023-03-26T22:02:58.534Z,62.49
2023-03-26T22:08:40.678Z,64.02
2023-03-26T22:14:04.992Z,62.29
2023-03-26T22:16:31.787Z,64.09
2023-03-26T22:18:58.398Z,61.59
2023-03-26T22:24:19.822Z,61.36
2023-03-26T22:26:47.213Z,64.91
2023-03-26T22:29:14.606Z,64.88
2023-03-26T22:34:36.383Z,64.75
2023-03-26T22:37:03.034Z,65.78
2023-03-26T22:39:29.704Z,64.49
2023-03-26T22:41:56.438Z,65.24
2023-03-26T22:44:23.111Z,65.98
2023-03-26T22:46:51.632Z,65.48
2023-03-26T22:49:18.946Z,65.24
2023-03-26T22:51:45.616Z,66.41
2023-03-26T22:54:12.215Z,66.19
2023-03-26T22:56:39.297Z,64.83
2023-03-26T22:59:06.526Z,67.97
2023-03-26T23:01:33.345Z,66.32
2023-03-26T23:03:59.876Z,68.87
2023-03-26T23:06:26.480Z,68.00
2023-03-26T23:08:54.414Z,67.50
2023-03-26T23:11:22.366Z,67.76
2023-03-26T23:13:49.614Z,66.94
2023-03-26T23:16:17.470Z,68.27
2023-03-26T23:18:44.696Z,67.43
2023-03-26T23:21:18.506Z,68.66
2023-03-26T23:23:45.816Z,66.49
2023-03-26T23:26:12.838Z,66.42
2023-03-26T23:28:40.985Z,66.15
2023-03-26T23:31:09.885Z,65.96
2023-03-26T23:33:39.183Z,65.98
2023-03-26T23:36:10.488Z,66.12
2023-03-26T23:38:44.229Z,66.23
2023-03-26T23:41:15.291Z,66.66
2023-03-26T23:43:54.840Z,67.17
2023-03-26T23:46:24.479Z,65.95
2023-03-26T23:48:53.262Z,66.95
2023-03-26T23:51:21.212Z,66.75
2023-03-26T23:53:49.152Z,66.77
2023-03-26T23:56:16.593Z,67.09
2023-03-26T23:58:43.387Z,66.75
